Hydro, Oklahoma
Current Conditions -  °F | °C
As of 9:55 AM on Thursday 23 Oct 2014 (Local Time) from KOJA Reporting Station
Clear Clear  
Wind Chill: 63°   Ceiling: Unl
Heat Index: 63°   Visibility: 7mi
Dew Point: 61°   Wind: 8mph
Humidity: 94%   Direction: 160°SSE
Pressure: 30.13"   Gusts: NA
Location:  35.55°N, 98.58°W
Report Text: KOJA 231455Z AUTO 16007KT 7SM CLR 17/16 A3013 RMK AO2
Loading
Personal Weather Stations






























Interactive Weather Map New forecast layout! Learn more

10-Day Weather Forecast

Advertisements
Track Severe Weather on mobile